sensor_id;sensor_type;location;lat;lon;timestamp;temperature;humidity
5938;DHT22;2994;51.220;4.412;2023-04-24T00:01:13;13.23;74.05
5938;DHT22;2994;51.220;4.412;2023-04-24T00:03:38;13.15;74.05
5938;DHT22;2994;51.220;4.412;2023-04-24T00:06:05;13.09;74.31
5938;DHT22;2994;51.220;4.412;2023-04-24T00:08:33;13.10;73.88
5938;DHT22;2994;51.220;4.412;2023-04-24T00:10:59;13.09;73.71
5938;DHT22;2994;51.220;4.412;2023-04-24T00:13:25;13.16;73.47
5938;DHT22;2994;51.220;4.412;2023-04-24T00:15:50;13.12;73.47
5938;DHT22;2994;51.220;4.412;2023-04-24T00:18:17;13.06;73.81
5938;DHT22;2994;51.220;4.412;2023-04-24T00:20:42;13.12;73.33
5938;DHT22;2994;51.220;4.412;2023-04-24T00:23:09;13.18;73.08
5938;DHT22;2994;51.220;4.412;2023-04-24T00:25:34;13.09;73.66
5938;DHT22;2994;51.220;4.412;2023-04-24T00:28:00;13.20;73.01
5938;DHT22;2994;51.220;4.412;2023-04-24T00:30:26;13.00;73.79
5938;DHT22;2994;51.220;4.412;2023-04-24T00:32:51;13.11;73.35
5938;DHT22;2994;51.220;4.412;2023-04-24T00:35:17;13.21;72.75
5938;DHT22;2994;51.220;4.412;2023-04-24T00:37:42;13.30;72.07
5938;DHT22;2994;51.220;4.412;2023-04-24T00:40:08;13.08;72.66
5938;DHT22;2994;51.220;4.412;2023-04-24T00:42:34;13.09;72.78
5938;DHT22;2994;51.220;4.412;2023-04-24T00:45:02;13.19;71.90
5938;DHT22;2994;51.220;4.412;2023-04-24T00:47:28;13.18;71.93
5938;DHT22;2994;51.220;4.412;2023-04-24T00:49:54;13.05;72.12
5938;DHT22;2994;51.220;4.412;2023-04-24T00:52:23;13.05;72.13
5938;DHT22;2994;51.220;4.412;2023-04-24T00:54:49;12.97;71.74
5938;DHT22;2994;51.220;4.412;2023-04-24T00:57:15;12.93;72.11
5938;DHT22;2994;51.220;4.412;2023-04-24T00:59:41;12.89;72.48
5938;DHT22;2994;51.220;4.412;2023-04-24T01:02:08;12.84;72.64
5938;DHT22;2994;51.220;4.412;2023-04-24T01:04:35;13.04;72.03
5938;DHT22;2994;51.220;4.412;2023-04-24T01:07:00;13.05;72.02
5938;DHT22;2994;51.220;4.412;2023-04-24T01:09:26;12.92;72.41
5938;DHT22;2994;51.220;4.412;2023-04-24T01:11:52;13.07;71.57
5938;DHT22;2994;51.220;4.412;2023-04-24T01:14:18;12.92;72.21
5938;DHT22;2994;51.220;4.412;2023-04-24T01:16:43;13.04;71.80
5938;DHT22;2994;51.220;4.412;2023-04-24T01:19:09;13.09;71.48
5938;DHT22;2994;51.220;4.412;2023-04-24T01:21:38;13.04;71.94
5938;DHT22;2994;51.220;4.412;2023-04-24T01:24:08;12.95;72.38
5938;DHT22;2994;51.220;4.412;2023-04-24T01:26:36;13.03;71.80
5938;DHT22;2994;51.220;4.412;2023-04-24T01:29:02;13.03;71.96
5938;DHT22;2994;51.220;4.412;2023-04-24T01:31:28;13.07;72.00
5938;DHT22;2994;51.220;4.412;2023-04-24T01:33:54;13.03;71.79
5938;DHT22;2994;51.220;4.412;2023-04-24T01:36:21;12.85;72.45
5938;DHT22;2994;51.220;4.412;2023-04-24T01:38:47;12.91;72.28
5938;DHT22;2994;51.220;4.412;2023-04-24T01:41:13;12.96;71.80
5938;DHT22;2994;51.220;4.412;2023-04-24T01:43:38;12.79;72.72
5938;DHT22;2994;51.220;4.412;2023-04-24T01:46:04;12.94;72.03
5938;DHT22;2994;51.220;4.412;2023-04-24T01:48:29;12.99;71.86
5938;DHT22;2994;51.220;4.412;2023-04-24T01:50:56;12.86;72.36
5938;DHT22;2994;51.220;4.412;2023-04-24T01:53:22;12.79;72.51
5938;DHT22;2994;51.220;4.412;2023-04-24T01:55:50;12.75;71.96
5938;DHT22;2994;51.220;4.412;2023-04-24T01:58:15;12.71;72.41
5938;DHT22;2994;51.220;4.412;2023-04-24T02:00:41;12.78;72.12
5938;DHT22;2994;51.220;4.412;2023-04-24T02:03:06;12.88;71.55
5938;DHT22;2994;51.220;4.412;2023-04-24T02:05:32;12.77;72.01
5938;DHT22;2994;51.220;4.412;2023-04-24T02:08:01;12.75;72.56
5938;DHT22;2994;51.220;4.412;2023-04-24T02:10:26;12.81;71.87
5938;DHT22;2994;51.220;4.412;2023-04-24T02:12:52;12.79;72.41
5938;DHT22;2994;51.220;4.412;2023-04-24T02:15:17;12.80;72.28
5938;DHT22;2994;51.220;4.412;2023-04-24T02:17:43;12.82;72.22
5938;DHT22;2994;51.220;4.412;2023-04-24T02:20:08;12.89;71.84
5938;DHT22;2994;51.220;4.412;2023-04-24T02:22:34;12.73;72.51
5938;DHT22;2994;51.220;4.412;2023-04-24T02:25:00;12.81;72.25
5938;DHT22;2994;51.220;4.412;2023-04-24T02:27:26;12.65;72.99
5938;DHT22;2994;51.220;4.412;2023-04-24T02:29:51;12.79;72.37
5938;DHT22;2994;51.220;4.412;2023-04-24T02:32:16;12.74;72.85
5938;DHT22;2994;51.220;4.412;2023-04-24T02:34:42;12.66;73.23
5938;DHT22;2994;51.220;4.412;2023-04-24T02:37:07;12.78;72.55
5938;DHT22;2994;51.220;4.412;2023-04-24T02:39:33;12.78;72.63
5938;DHT22;2994;51.220;4.412;2023-04-24T02:41:58;12.82;72.61
5938;DHT22;2994;51.220;4.412;2023-04-24T02:44:24;12.75;72.90
5938;DHT22;2994;51.220;4.412;2023-04-24T02:46:49;12.67;73.30
5938;DHT22;2994;51.220;4.412;2023-04-24T02:49:15;12.64;73.71
5938;DHT22;2994;51.220;4.412;2023-04-24T02:51:41;12.61;74.25
5938;DHT22;2994;51.220;4.412;2023-04-24T02:54:08;12.44;75.43
5938;DHT22;2994;51.220;4.412;2023-04-24T02:56:34;12.58;75.03
5938;DHT22;2994;51.220;4.412;2023-04-24T02:59:00;12.53;75.43
5938;DHT22;2994;51.220;4.412;2023-04-24T03:01:25;12.57;75.73
5938;DHT22;2994;51.220;4.412;2023-04-24T03:03:51;12.45;76.30
5938;DHT22;2994;51.220;4.412;2023-04-24T03:06:16;12.37;76.86
5938;DHT22;2994;51.220;4.412;2023-04-24T03:08:41;12.56;75.97
5938;DHT22;2994;51.220;4.412;2023-04-24T03:11:07;12.59;75.77
5938;DHT22;2994;51.220;4.412;2023-04-24T03:13:34;12.52;76.34
5938;DHT22;2994;51.220;4.412;2023-04-24T03:16:00;12.51;76.29
5938;DHT22;2994;51.220;4.412;2023-04-24T03:18:25;12.42;76.73
5938;DHT22;2994;51.220;4.412;2023-04-24T03:20:51;12.48;76.59
5938;DHT22;2994;51.220;4.412;2023-04-24T03:23:16;12.52;76.73
5938;DHT22;2994;51.220;4.412;2023-04-24T03:25:42;12.50;76.98
5938;DHT22;2994;51.220;4.412;2023-04-24T03:28:08;12.50;76.92
5938;DHT22;2994;51.220;4.412;2023-04-24T03:30:33;12.31;77.12
5938;DHT22;2994;51.220;4.412;2023-04-24T03:32:59;12.29;77.44
5938;DHT22;2994;51.220;4.412;2023-04-24T03:35:25;12.03;78.67
5938;DHT22;2994;51.220;4.412;2023-04-24T03:37:53;11.83;79.24
5938;DHT22;2994;51.220;4.412;2023-04-24T03:40:19;11.83;79.10
5938;DHT22;2994;51.220;4.412;2023-04-24T03:42:44;11.53;80.24
5938;DHT22;2994;51.220;4.412;2023-04-24T03:45:10;11.42;80.69
5938;DHT22;2994;51.220;4.412;2023-04-24T03:47:35;11.36;81.42
5938;DHT22;2994;51.220;4.412;2023-04-24T03:50:01;11.43;81.21
5938;DHT22;2994;51.220;4.412;2023-04-24T03:52:26;11.23;81.89
5938;DHT22;2994;51.220;4.412;2023-04-24T03:54:52;11.22;81.94
5938;DHT22;2994;51.220;4.412;2023-04-24T03:57:17;11.05;82.62
5938;DHT22;2994;51.220;4.412;2023-04-24T03:59:43;11.02;82.46
5938;DHT22;2994;51.220;4.412;2023-04-24T04:02:08;11.14;82.13
5938;DHT22;2994;51.220;4.412;2023-04-24T04:04:33;11.23;82.13
5938;DHT22;2994;51.220;4.412;2023-04-24T04:06:59;11.11;82.49
5938;DHT22;2994;51.220;4.412;2023-04-24T04:09:28;10.87;83.59
5938;DHT22;2994;51.220;4.412;2023-04-24T04:11:54;10.86;84.03
5938;DHT22;2994;51.220;4.412;2023-04-24T04:14:22;10.90;84.03
5938;DHT22;2994;51.220;4.412;2023-04-24T04:16:51;11.02;83.24
5938;DHT22;2994;51.220;4.412;2023-04-24T04:19:17;10.88;83.73
5938;DHT22;2994;51.220;4.412;2023-04-24T04:21:42;11.11;82.86
5938;DHT22;2994;51.220;4.412;2023-04-24T04:24:07;10.90;83.39
5938;DHT22;2994;51.220;4.412;2023-04-24T04:26:34;11.03;83.51
5938;DHT22;2994;51.220;4.412;2023-04-24T04:29:03;10.86;84.27
5938;DHT22;2994;51.220;4.412;2023-04-24T04:31:29;10.69;84.57
5938;DHT22;2994;51.220;4.412;2023-04-24T04:33:55;10.93;84.13
5938;DHT22;2994;51.220;4.412;2023-04-24T04:36:23;10.81;84.30
5938;DHT22;2994;51.220;4.412;2023-04-24T04:38:49;10.60;84.65
5938;DHT22;2994;51.220;4.412;2023-04-24T04:41:14;10.50;84.91
5938;DHT22;2994;51.220;4.412;2023-04-24T04:43:42;10.71;84.86
5938;DHT22;2994;51.220;4.412;2023-04-24T04:46:10;10.84;83.65
5938;DHT22;2994;51.220;4.412;2023-04-24T04:48:36;10.73;84.11
5938;DHT22;2994;51.220;4.412;2023-04-24T04:51:01;10.65;84.14
5938;DHT22;2994;51.220;4.412;2023-04-24T04:53:27;10.58;84.08
5938;DHT22;2994;51.220;4.412;2023-04-24T04:55:52;10.74;83.06
5938;DHT22;2994;51.220;4.412;2023-04-24T04:58:18;10.65;83.00
5938;DHT22;2994;51.220;4.412;2023-04-24T05:00:43;10.56;83.65
5938;DHT22;2994;51.220;4.412;2023-04-24T05:03:09;10.59;83.66
5938;DHT22;2994;51.220;4.412;2023-04-24T05:05:35;10.43;83.44
5938;DHT22;2994;51.220;4.412;2023-04-24T05:08:00;10.37;84.13
5938;DHT22;2994;51.220;4.412;2023-04-24T05:10:25;10.48;83.89
5938;DHT22;2994;51.220;4.412;2023-04-24T05:12:51;10.50;83.32
5938;DHT22;2994;51.220;4.412;2023-04-24T05:15:16;10.64;83.06
5938;DHT22;2994;51.220;4.412;2023-04-24T05:17:42;10.51;82.75
5938;DHT22;2994;51.220;4.412;2023-04-24T05:20:07;10.60;82.38
5938;DHT22;2994;51.220;4.412;2023-04-24T05:22:33;10.48;83.20
5938;DHT22;2994;51.220;4.412;2023-04-24T05:24:59;10.16;83.84
5938;DHT22;2994;51.220;4.412;2023-04-24T05:27:24;10.36;82.74
5938;DHT22;2994;51.220;4.412;2023-04-24T05:29:50;10.40;82.24
5938;DHT22;2994;51.220;4.412;2023-04-24T05:32:16;10.41;82.02
5938;DHT22;2994;51.220;4.412;2023-04-24T05:34:41;10.46;82.09
5938;DHT22;2994;51.220;4.412;2023-04-24T05:37:07;10.58;80.60
5938;DHT22;2994;51.220;4.412;2023-04-24T05:39:35;10.52;80.98
5938;DHT22;2994;51.220;4.412;2023-04-24T05:42:01;10.78;80.77
5938;DHT22;2994;51.220;4.412;2023-04-24T05:44:27;10.70;80.96
5938;DHT22;2994;51.220;4.412;2023-04-24T05:46:52;10.82;80.34
5938;DHT22;2994;51.220;4.412;2023-04-24T05:49:18;10.72;80.21
5938;DHT22;2994;51.220;4.412;2023-04-24T05:51:43;10.63;80.85
5938;DHT22;2994;51.220;4.412;2023-04-24T05:54:09;10.66;80.79
5938;DHT22;2994;51.220;4.412;2023-04-24T05:56:35;10.64;81.12
5938;DHT22;2994;51.220;4.412;2023-04-24T05:59:01;10.71;81.21
5938;DHT22;2994;51.220;4.412;2023-04-24T06:01:26;10.79;81.09
5938;DHT22;2994;51.220;4.412;2023-04-24T06:03:52;10.75;81.61
5938;DHT22;2994;51.220;4.412;2023-04-24T06:06:18;10.95;81.14
5938;DHT22;2994;51.220;4.412;2023-04-24T06:08:44;10.74;81.95
5938;DHT22;2994;51.220;4.412;2023-04-24T06:11:10;10.85;81.78
5938;DHT22;2994;51.220;4.412;2023-04-24T06:13:36;10.85;81.79
5938;DHT22;2994;51.220;4.412;2023-04-24T06:16:01;10.97;81.48
5938;DHT22;2994;51.220;4.412;2023-04-24T06:18:27;10.88;81.93
5938;DHT22;2994;51.220;4.412;2023-04-24T06:20:53;10.92;81.90
5938;DHT22;2994;51.220;4.412;2023-04-24T06:23:18;10.69;82.71
5938;DHT22;2994;51.220;4.412;2023-04-24T06:25:43;10.68;82.72
5938;DHT22;2994;51.220;4.412;2023-04-24T06:28:09;11.01;81.74
5938;DHT22;2994;51.220;4.412;2023-04-24T06:30:35;10.94;81.84
5938;DHT22;2994;51.220;4.412;2023-04-24T06:33:00;10.92;82.04
5938;DHT22;2994;51.220;4.412;2023-04-24T06:35:28;11.01;81.49
5938;DHT22;2994;51.220;4.412;2023-04-24T06:37:54;10.92;81.90
5938;DHT22;2994;51.220;4.412;2023-04-24T06:40:21;11.00;81.17
5938;DHT22;2994;51.220;4.412;2023-04-24T06:42:47;10.95;81.53
5938;DHT22;2994;51.220;4.412;2023-04-24T06:45:15;11.04;81.45
5938;DHT22;2994;51.220;4.412;2023-04-24T06:47:41;11.04;81.78
5938;DHT22;2994;51.220;4.412;2023-04-24T06:50:06;11.17;81.47
5938;DHT22;2994;51.220;4.412;2023-04-24T06:52:32;11.01;82.51
5938;DHT22;2994;51.220;4.412;2023-04-24T06:55:02;10.95;82.96
5938;DHT22;2994;51.220;4.412;2023-04-24T06:57:28;11.11;82.27
5938;DHT22;2994;51.220;4.412;2023-04-24T06:59:53;11.11;82.25
5938;DHT22;2994;51.220;4.412;2023-04-24T07:02:19;11.13;82.01
5938;DHT22;2994;51.220;4.412;2023-04-24T07:04:45;11.17;81.39
5938;DHT22;2994;51.220;4.412;2023-04-24T07:07:13;11.13;81.07
5938;DHT22;2994;51.220;4.412;2023-04-24T07:09:40;11.23;80.42
5938;DHT22;2994;51.220;4.412;2023-04-24T07:12:09;11.40;80.20
5938;DHT22;2994;51.220;4.412;2023-04-24T07:14:38;11.38;79.23
5938;DHT22;2994;51.220;4.412;2023-04-24T07:17:04;11.48;78.62
5938;DHT22;2994;51.220;4.412;2023-04-24T07:19:31;11.34;77.75
5938;DHT22;2994;51.220;4.412;2023-04-24T07:21:56;11.34;77.21
5938;DHT22;2994;51.220;4.412;2023-04-24T07:24:24;11.08;78.66
5938;DHT22;2994;51.220;4.412;2023-04-24T07:26:51;11.12;78.17
5938;DHT22;2994;51.220;4.412;2023-04-24T07:29:19;11.44;77.26
5938;DHT22;2994;51.220;4.412;2023-04-24T07:31:45;11.60;76.29
5938;DHT22;2994;51.220;4.412;2023-04-24T07:34:10;11.51;76.47
5938;DHT22;2994;51.220;4.412;2023-04-24T07:36:39;11.61;75.84
5938;DHT22;2994;51.220;4.412;2023-04-24T07:39:05;11.58;75.79
5938;DHT22;2994;51.220;4.412;2023-04-24T07:41:31;11.75;75.72
5938;DHT22;2994;51.220;4.412;2023-04-24T07:43:56;11.60;74.80
5938;DHT22;2994;51.220;4.412;2023-04-24T07:46:22;11.72;74.63
5938;DHT22;2994;51.220;4.412;2023-04-24T07:48:48;11.72;74.02
5938;DHT22;2994;51.220;4.412;2023-04-24T07:51:14;11.86;75.05
5938;DHT22;2994;51.220;4.412;2023-04-24T07:53:40;11.88;74.33
5938;DHT22;2994;51.220;4.412;2023-04-24T07:56:06;11.67;74.75
5938;DHT22;2994;51.220;4.412;2023-04-24T07:58:31;11.79;75.40
5938;DHT22;2994;51.220;4.412;2023-04-24T08:00:57;12.21;73.30
5938;DHT22;2994;51.220;4.412;2023-04-24T08:03:22;12.36;73.96
5938;DHT22;2994;51.220;4.412;2023-04-24T08:05:48;12.07;73.79
5938;DHT22;2994;51.220;4.412;2023-04-24T08:08:16;12.01;74.41
5938;DHT22;2994;51.220;4.412;2023-04-24T08:10:41;11.98;73.28
5938;DHT22;2994;51.220;4.412;2023-04-24T08:13:07;11.93;72.92
5938;DHT22;2994;51.220;4.412;2023-04-24T08:15:32;11.97;72.89
5938;DHT22;2994;51.220;4.412;2023-04-24T08:17:58;11.79;74.27
5938;DHT22;2994;51.220;4.412;2023-04-24T08:20:26;11.84;73.33
5938;DHT22;2994;51.220;4.412;2023-04-24T08:22:51;11.67;73.71
5938;DHT22;2994;51.220;4.412;2023-04-24T08:25:17;11.73;73.37
5938;DHT22;2994;51.220;4.412;2023-04-24T08:27:44;11.49;72.83
5938;DHT22;2994;51.220;4.412;2023-04-24T08:30:10;11.81;73.09
5938;DHT22;2994;51.220;4.412;2023-04-24T08:32:36;11.79;71.99
5938;DHT22;2994;51.220;4.412;2023-04-24T08:35:01;11.83;72.20
5938;DHT22;2994;51.220;4.412;2023-04-24T08:37:27;11.91;72.64
5938;DHT22;2994;51.220;4.412;2023-04-24T08:39:53;11.91;73.46
5938;DHT22;2994;51.220;4.412;2023-04-24T08:42:19;12.03;73.52
5938;DHT22;2994;51.220;4.412;2023-04-24T08:44:45;12.01;72.39
5938;DHT22;2994;51.220;4.412;2023-04-24T08:47:11;11.88;70.90
5938;DHT22;2994;51.220;4.412;2023-04-24T08:49:38;12.13;71.12
5938;DHT22;2994;51.220;4.412;2023-04-24T08:52:05;11.74;70.55
5938;DHT22;2994;51.220;4.412;2023-04-24T08:54:32;11.79;70.72
5938;DHT22;2994;51.220;4.412;2023-04-24T08:57:00;12.38;70.33
5938;DHT22;2994;51.220;4.412;2023-04-24T08:59:32;12.17;68.23
5938;DHT22;2994;51.220;4.412;2023-04-24T09:01:59;12.27;67.37
5938;DHT22;2994;51.220;4.412;2023-04-24T09:04:25;12.02;67.52
5938;DHT22;2994;51.220;4.412;2023-04-24T09:06:55;12.16;67.46
5938;DHT22;2994;51.220;4.412;2023-04-24T09:09:21;12.35;67.94
5938;DHT22;2994;51.220;4.412;2023-04-24T09:11:49;12.19;67.63
5938;DHT22;2994;51.220;4.412;2023-04-24T09:14:15;12.25;68.01
5938;DHT22;2994;51.220;4.412;2023-04-24T09:16:41;12.21;68.17
5938;DHT22;2994;51.220;4.412;2023-04-24T09:19:06;12.01;67.17
5938;DHT22;2994;51.220;4.412;2023-04-24T09:21:33;12.18;68.30
5938;DHT22;2994;51.220;4.412;2023-04-24T09:24:00;12.22;67.36
5938;DHT22;2994;51.220;4.412;2023-04-24T09:26:29;12.33;67.36
5938;DHT22;2994;51.220;4.412;2023-04-24T09:28:57;12.33;67.81
5938;DHT22;2994;51.220;4.412;2023-04-24T09:31:22;12.13;67.62
5938;DHT22;2994;51.220;4.412;2023-04-24T09:33:56;12.10;66.65
5938;DHT22;2994;51.220;4.412;2023-04-24T09:36:32;11.87;67.48
5938;DHT22;2994;51.220;4.412;2023-04-24T09:39:04;11.96;67.54
5938;DHT22;2994;51.220;4.412;2023-04-24T09:41:32;11.66;67.00
5938;DHT22;2994;51.220;4.412;2023-04-24T09:44:11;12.19;66.65
5938;DHT22;2994;51.220;4.412;2023-04-24T09:46:37;12.37;66.15
5938;DHT22;2994;51.220;4.412;2023-04-24T09:49:13;12.56;66.55
5938;DHT22;2994;51.220;4.412;2023-04-24T09:51:39;12.70;66.25
5938;DHT22;2994;51.220;4.412;2023-04-24T09:54:14;12.82;65.85
5938;DHT22;2994;51.220;4.412;2023-04-24T09:56:45;12.75;66.05
5938;DHT22;2994;51.220;4.412;2023-04-24T09:59:12;12.64;64.75
5938;DHT22;2994;51.220;4.412;2023-04-24T10:01:38;12.84;65.44
5938;DHT22;2994;51.220;4.412;2023-04-24T10:04:15;13.05;64.92
5938;DHT22;2994;51.220;4.412;2023-04-24T10:06:42;12.95;63.22
5938;DHT22;2994;51.220;4.412;2023-04-24T10:09:08;12.75;59.35
5938;DHT22;2994;51.220;4.412;2023-04-24T10:11:36;12.32;59.00
5938;DHT22;2994;51.220;4.412;2023-04-24T10:14:03;12.69;61.25
5938;DHT22;2994;51.220;4.412;2023-04-24T10:16:29;12.67;59.53
5938;DHT22;2994;51.220;4.412;2023-04-24T10:18:59;12.76;61.18
5938;DHT22;2994;51.220;4.412;2023-04-24T10:21:24;12.92;61.41
5938;DHT22;2994;51.220;4.412;2023-04-24T10:23:52;12.94;62.51
5938;DHT22;2994;51.220;4.412;2023-04-24T10:26:19;12.85;63.02
5938;DHT22;2994;51.220;4.412;2023-04-24T10:28:46;13.08;62.33
5938;DHT22;2994;51.220;4.412;2023-04-24T10:31:14;12.86;60.89
5938;DHT22;2994;51.220;4.412;2023-04-24T10:33:42;12.80;62.54
5938;DHT22;2994;51.220;4.412;2023-04-24T10:36:09;13.05;62.28
5938;DHT22;2994;51.220;4.412;2023-04-24T10:38:37;13.18;61.14
5938;DHT22;2994;51.220;4.412;2023-04-24T10:41:10;13.53;60.31
5938;DHT22;2994;51.220;4.412;2023-04-24T10:43:41;13.33;58.96
5938;DHT22;2994;51.220;4.412;2023-04-24T10:46:08;13.36;60.40
5938;DHT22;2994;51.220;4.412;2023-04-24T10:48:52;13.32;59.07
5938;DHT22;2994;51.220;4.412;2023-04-24T10:51:24;13.40;60.26
5938;DHT22;2994;51.220;4.412;2023-04-24T10:53:50;13.21;59.19
5938;DHT22;2994;51.220;4.412;2023-04-24T10:56:17;12.99;59.28
5938;DHT22;2994;51.220;4.412;2023-04-24T10:58:44;13.24;58.58
5938;DHT22;2994;51.220;4.412;2023-04-24T11:04:21;13.02;57.06
5938;DHT22;2994;51.220;4.412;2023-04-24T11:06:53;13.14;56.02
5938;DHT22;2994;51.220;4.412;2023-04-24T11:09:20;13.08;54.18
5938;DHT22;2994;51.220;4.412;2023-04-24T11:11:47;12.89;56.14
5938;DHT22;2994;51.220;4.412;2023-04-24T11:14:15;13.03;55.38
5938;DHT22;2994;51.220;4.412;2023-04-24T11:19:20;13.34;54.39
5938;DHT22;2994;51.220;4.412;2023-04-24T11:22:03;13.34;55.34
5938;DHT22;2994;51.220;4.412;2023-04-24T11:27:13;13.15;55.13
5938;DHT22;2994;51.220;4.412;2023-04-24T11:37:37;13.37;55.61
5938;DHT22;2994;51.220;4.412;2023-04-24T11:40:07;13.34;57.16
5938;DHT22;2994;51.220;4.412;2023-04-24T11:42:40;13.22;57.18
5938;DHT22;2994;51.220;4.412;2023-04-24T11:45:14;13.20;57.52
5938;DHT22;2994;51.220;4.412;2023-04-24T11:47:41;13.21;58.06
5938;DHT22;2994;51.220;4.412;2023-04-24T11:50:10;13.19;57.96
5938;DHT22;2994;51.220;4.412;2023-04-24T11:52:40;13.46;58.19
5938;DHT22;2994;51.220;4.412;2023-04-24T11:57:55;13.54;57.68
5938;DHT22;2994;51.220;4.412;2023-04-24T12:00:26;13.53;58.09
5938;DHT22;2994;51.220;4.412;2023-04-24T12:03:13;13.35;58.73
5938;DHT22;2994;51.220;4.412;2023-04-24T12:05:43;13.62;58.33
5938;DHT22;2994;51.220;4.412;2023-04-24T12:08:10;13.75;58.19
5938;DHT22;2994;51.220;4.412;2023-04-24T12:10:38;13.65;58.60
5938;DHT22;2994;51.220;4.412;2023-04-24T12:13:08;13.41;57.88
5938;DHT22;2994;51.220;4.412;2023-04-24T12:15:39;13.58;58.74
5938;DHT22;2994;51.220;4.412;2023-04-24T12:18:05;13.29;58.46
5938;DHT22;2994;51.220;4.412;2023-04-24T12:20:32;13.15;59.27
5938;DHT22;2994;51.220;4.412;2023-04-24T12:22:59;13.35;58.52
5938;DHT22;2994;51.220;4.412;2023-04-24T12:25:38;13.22;58.62
5938;DHT22;2994;51.220;4.412;2023-04-24T12:30:47;13.47;57.78
5938;DHT22;2994;51.220;4.412;2023-04-24T12:33:17;13.65;58.36
5938;DHT22;2994;51.220;4.412;2023-04-24T12:35:43;13.52;56.97
5938;DHT22;2994;51.220;4.412;2023-04-24T12:38:10;13.70;57.29
5938;DHT22;2994;51.220;4.412;2023-04-24T12:45:48;13.50;56.49
5938;DHT22;2994;51.220;4.412;2023-04-24T12:48:16;13.88;57.48
5938;DHT22;2994;51.220;4.412;2023-04-24T12:50:44;14.11;54.67
5938;DHT22;2994;51.220;4.412;2023-04-24T12:53:09;13.65;53.60
5938;DHT22;2994;51.220;4.412;2023-04-24T12:55:36;13.88;53.60
5938;DHT22;2994;51.220;4.412;2023-04-24T12:58:05;14.14;53.09
5938;DHT22;2994;51.220;4.412;2023-04-24T13:00:31;15.02;51.59
5938;DHT22;2994;51.220;4.412;2023-04-24T13:02:56;15.26;50.62
5938;DHT22;2994;51.220;4.412;2023-04-24T13:05:22;15.27;51.12
5938;DHT22;2994;51.220;4.412;2023-04-24T13:07:47;15.07;50.22
5938;DHT22;2994;51.220;4.412;2023-04-24T13:10:13;16.11;50.00
5938;DHT22;2994;51.220;4.412;2023-04-24T13:12:38;15.97;46.72
5938;DHT22;2994;51.220;4.412;2023-04-24T13:15:05;15.66;47.64
5938;DHT22;2994;51.220;4.412;2023-04-24T13:17:31;15.84;51.01
5938;DHT22;2994;51.220;4.412;2023-04-24T13:19:56;16.03;48.18
5938;DHT22;2994;51.220;4.412;2023-04-24T13:22:24;16.00;47.31
5938;DHT22;2994;51.220;4.412;2023-04-24T13:24:50;15.43;48.24
5938;DHT22;2994;51.220;4.412;2023-04-24T13:27:16;15.31;48.14
5938;DHT22;2994;51.220;4.412;2023-04-24T13:29:42;15.68;47.17
5938;DHT22;2994;51.220;4.412;2023-04-24T13:32:08;15.58;48.14
5938;DHT22;2994;51.220;4.412;2023-04-24T13:34:34;15.66;48.60
5938;DHT22;2994;51.220;4.412;2023-04-24T13:37:02;15.53;50.00
5938;DHT22;2994;51.220;4.412;2023-04-24T13:39:29;15.43;50.07
5938;DHT22;2994;51.220;4.412;2023-04-24T13:41:55;15.25;51.01
5938;DHT22;2994;51.220;4.412;2023-04-24T13:44:21;15.06;50.50
5938;DHT22;2994;51.220;4.412;2023-04-24T13:46:48;15.04;50.76
5938;DHT22;2994;51.220;4.412;2023-04-24T13:49:25;15.30;50.66
5938;DHT22;2994;51.220;4.412;2023-04-24T13:51:52;15.74;50.82
5938;DHT22;2994;51.220;4.412;2023-04-24T13:54:17;15.97;48.90
5938;DHT22;2994;51.220;4.412;2023-04-24T13:56:43;15.78;49.13
5938;DHT22;2994;51.220;4.412;2023-04-24T13:59:09;15.54;50.08
5938;DHT22;2994;51.220;4.412;2023-04-24T14:01:40;15.91;48.86
5938;DHT22;2994;51.220;4.412;2023-04-24T14:04:06;15.78;48.82
5938;DHT22;2994;51.220;4.412;2023-04-24T14:06:31;15.87;52.45
5938;DHT22;2994;51.220;4.412;2023-04-24T14:08:57;16.26;47.87
5938;DHT22;2994;51.220;4.412;2023-04-24T14:11:23;16.12;46.07
5938;DHT22;2994;51.220;4.412;2023-04-24T14:13:48;16.12;45.51
5938;DHT22;2994;51.220;4.412;2023-04-24T14:16:14;16.26;45.77
5938;DHT22;2994;51.220;4.412;2023-04-24T14:18:39;16.24;45.96
5938;DHT22;2994;51.220;4.412;2023-04-24T14:21:05;16.67;45.34
5938;DHT22;2994;51.220;4.412;2023-04-24T14:23:31;16.37;45.53
5938;DHT22;2994;51.220;4.412;2023-04-24T14:25:59;16.65;45.06
5938;DHT22;2994;51.220;4.412;2023-04-24T14:28:25;16.41;45.50
5938;DHT22;2994;51.220;4.412;2023-04-24T14:30:51;16.24;45.53
5938;DHT22;2994;51.220;4.412;2023-04-24T14:33:17;16.45;44.97
5938;DHT22;2994;51.220;4.412;2023-04-24T14:35:43;16.57;45.15
5938;DHT22;2994;51.220;4.412;2023-04-24T14:38:09;16.69;46.33
5938;DHT22;2994;51.220;4.412;2023-04-24T14:40:35;16.77;45.61
5938;DHT22;2994;51.220;4.412;2023-04-24T14:43:00;16.50;46.73
5938;DHT22;2994;51.220;4.412;2023-04-24T14:45:26;16.41;46.20
5938;DHT22;2994;51.220;4.412;2023-04-24T14:47:52;16.72;47.86
5938;DHT22;2994;51.220;4.412;2023-04-24T14:50:18;16.59;45.83
5938;DHT22;2994;51.220;4.412;2023-04-24T14:52:44;16.47;45.45
5938;DHT22;2994;51.220;4.412;2023-04-24T14:55:10;16.22;47.80
5938;DHT22;2994;51.220;4.412;2023-04-24T14:57:35;16.30;44.99
5938;DHT22;2994;51.220;4.412;2023-04-24T15:00:02;15.98;43.82
5938;DHT22;2994;51.220;4.412;2023-04-24T15:02:29;15.80;44.32
5938;DHT22;2994;51.220;4.412;2023-04-24T15:04:54;15.74;46.59
5938;DHT22;2994;51.220;4.412;2023-04-24T15:07:20;15.70;46.16
5938;DHT22;2994;51.220;4.412;2023-04-24T15:09:45;15.67;46.78
5938;DHT22;2994;51.220;4.412;2023-04-24T15:12:12;15.70;45.04
5938;DHT22;2994;51.220;4.412;2023-04-24T15:14:37;15.71;43.76
5938;DHT22;2994;51.220;4.412;2023-04-24T15:17:06;19.12;42.06
5938;DHT22;2994;51.220;4.412;2023-04-24T15:19:31;25.17;26.14
5938;DHT22;2994;51.220;4.412;2023-04-24T15:21:57;25.89;28.94
5938;DHT22;2994;51.220;4.412;2023-04-24T15:24:22;31.37;20.24
5938;DHT22;2994;51.220;4.412;2023-04-24T15:26:48;33.63;14.82
5938;DHT22;2994;51.220;4.412;2023-04-24T15:29:16;32.47;17.45
5938;DHT22;2994;51.220;4.412;2023-04-24T15:31:42;27.11;21.08
5938;DHT22;2994;51.220;4.412;2023-04-24T15:34:07;23.91;25.88
5938;DHT22;2994;51.220;4.412;2023-04-24T15:36:34;22.31;31.12
5938;DHT22;2994;51.220;4.412;2023-04-24T15:39:01;21.30;34.26
5938;DHT22;2994;51.220;4.412;2023-04-24T15:41:26;20.29;36.44
5938;DHT22;2994;51.220;4.412;2023-04-24T15:43:52;18.85;39.81
5938;DHT22;2994;51.220;4.412;2023-04-24T15:46:17;18.48;41.38
5938;DHT22;2994;51.220;4.412;2023-04-24T15:48:46;18.14;42.32
5938;DHT22;2994;51.220;4.412;2023-04-24T15:51:12;18.66;42.15
5938;DHT22;2994;51.220;4.412;2023-04-24T15:53:37;19.21;38.89
5938;DHT22;2994;51.220;4.412;2023-04-24T15:56:03;18.12;41.73
5938;DHT22;2994;51.220;4.412;2023-04-24T15:58:37;17.45;42.66
5938;DHT22;2994;51.220;4.412;2023-04-24T16:01:06;17.07;44.09
5938;DHT22;2994;51.220;4.412;2023-04-24T16:03:31;16.31;47.12
5938;DHT22;2994;51.220;4.412;2023-04-24T16:05:57;15.70;49.08
5938;DHT22;2994;51.220;4.412;2023-04-24T16:08:22;15.42;51.07
5938;DHT22;2994;51.220;4.412;2023-04-24T16:10:48;15.39;51.62
5938;DHT22;2994;51.220;4.412;2023-04-24T16:13:14;15.25;52.17
5938;DHT22;2994;51.220;4.412;2023-04-24T16:15:43;14.81;53.75
5938;DHT22;2994;51.220;4.412;2023-04-24T16:18:08;14.87;54.04
5938;DHT22;2994;51.220;4.412;2023-04-24T16:20:33;14.84;53.01
5938;DHT22;2994;51.220;4.412;2023-04-24T16:22:59;14.47;54.68
5938;DHT22;2994;51.220;4.412;2023-04-24T16:25:25;14.07;55.36